sensor_id;sensor_type;location;lat;lon;timestamp;P1;durP1;ratioP1;P2;durP2;ratioP2
10945;SDS011;5525;42.648;23.368;2023-04-24T00:01:32;6.78;;;4.97;;
10945;SDS011;5525;42.648;23.368;2023-04-24T00:03:59;6.28;;;5.07;;
10945;SDS011;5525;42.648;23.368;2023-04-24T00:06:26;6.32;;;5.38;;
10945;SDS011;5525;42.648;23.368;2023-04-24T00:08:59;6.43;;;5.22;;
10945;SDS011;5525;42.648;23.368;2023-04-24T00:11:26;6.45;;;5.10;;
10945;SDS011;5525;42.648;23.368;2023-04-24T00:13:53;6.00;;;5.40;;
10945;SDS011;5525;42.648;23.368;2023-04-24T00:16:19;6.63;;;5.50;;
10945;SDS011;5525;42.648;23.368;2023-04-24T00:18:46;6.68;;;5.88;;
10945;SDS011;5525;42.648;23.368;2023-04-24T00:21:14;8.70;;;5.95;;
10945;SDS011;5525;42.648;23.368;2023-04-24T00:23:41;9.13;;;6.35;;
10945;SDS011;5525;42.648;23.368;2023-04-24T00:26:10;9.23;;;5.85;;
10945;SDS011;5525;42.648;23.368;2023-04-24T00:28:36;9.25;;;6.28;;
10945;SDS011;5525;42.648;23.368;2023-04-24T00:31:03;6.18;;;5.18;;
10945;SDS011;5525;42.648;23.368;2023-04-24T00:33:30;10.57;;;5.43;;
10945;SDS011;5525;42.648;23.368;2023-04-24T00:35:57;7.80;;;5.45;;
10945;SDS011;5525;42.648;23.368;2023-04-24T00:38:23;5.88;;;5.22;;
10945;SDS011;5525;42.648;23.368;2023-04-24T00:40:50;7.10;;;5.55;;
10945;SDS011;5525;42.648;23.368;2023-04-24T00:43:20;5.93;;;5.30;;
10945;SDS011;5525;42.648;23.368;2023-04-24T00:45:47;7.10;;;5.63;;
10945;SDS011;5525;42.648;23.368;2023-04-24T00:48:13;7.43;;;5.30;;
10945;SDS011;5525;42.648;23.368;2023-04-24T00:50:40;7.93;;;6.20;;
10945;SDS011;5525;42.648;23.368;2023-04-24T00:53:08;10.27;;;6.97;;
10945;SDS011;5525;42.648;23.368;2023-04-24T00:55:35;9.02;;;6.57;;
10945;SDS011;5525;42.648;23.368;2023-04-24T00:58:02;8.10;;;6.40;;
10945;SDS011;5525;42.648;23.368;2023-04-24T01:00:30;7.13;;;6.03;;
10945;SDS011;5525;42.648;23.368;2023-04-24T01:02:57;10.50;;;6.35;;
10945;SDS011;5525;42.648;23.368;2023-04-24T01:05:27;10.55;;;6.70;;
10945;SDS011;5525;42.648;23.368;2023-04-24T01:07:54;8.55;;;6.35;;
10945;SDS011;5525;42.648;23.368;2023-04-24T01:10:22;7.63;;;6.00;;
10945;SDS011;5525;42.648;23.368;2023-04-24T01:12:50;7.75;;;6.40;;
10945;SDS011;5525;42.648;23.368;2023-04-24T01:15:17;8.88;;;6.15;;
10945;SDS011;5525;42.648;23.368;2023-04-24T01:17:47;6.72;;;6.03;;
10945;SDS011;5525;42.648;23.368;2023-04-24T01:20:13;7.22;;;6.10;;
10945;SDS011;5525;42.648;23.368;2023-04-24T01:22:42;8.63;;;5.88;;
10945;SDS011;5525;42.648;23.368;2023-04-24T01:25:08;6.68;;;5.65;;
10945;SDS011;5525;42.648;23.368;2023-04-24T01:27:35;6.85;;;5.90;;
10945;SDS011;5525;42.648;23.368;2023-04-24T01:30:02;6.90;;;5.97;;
10945;SDS011;5525;42.648;23.368;2023-04-24T01:32:29;9.18;;;6.40;;
10945;SDS011;5525;42.648;23.368;2023-04-24T01:34:56;7.22;;;6.13;;
10945;SDS011;5525;42.648;23.368;2023-04-24T01:37:23;8.15;;;6.18;;
10945;SDS011;5525;42.648;23.368;2023-04-24T01:39:53;6.82;;;6.22;;
10945;SDS011;5525;42.648;23.368;2023-04-24T01:42:19;8.88;;;6.10;;
10945;SDS011;5525;42.648;23.368;2023-04-24T01:44:46;9.23;;;6.25;;
10945;SDS011;5525;42.648;23.368;2023-04-24T01:47:13;8.20;;;7.18;;
10945;SDS011;5525;42.648;23.368;2023-04-24T01:49:40;10.18;;;6.78;;
10945;SDS011;5525;42.648;23.368;2023-04-24T01:52:07;8.75;;;6.53;;
10945;SDS011;5525;42.648;23.368;2023-04-24T01:54:33;8.65;;;6.90;;
10945;SDS011;5525;42.648;23.368;2023-04-24T01:57:01;11.13;;;6.97;;
10945;SDS011;5525;42.648;23.368;2023-04-24T01:59:28;8.20;;;6.53;;
10945;SDS011;5525;42.648;23.368;2023-04-24T02:01:56;10.52;;;6.95;;
10945;SDS011;5525;42.648;23.368;2023-04-24T02:04:22;8.20;;;6.70;;
10945;SDS011;5525;42.648;23.368;2023-04-24T02:06:49;9.50;;;6.93;;
10945;SDS011;5525;42.648;23.368;2023-04-24T02:09:16;9.82;;;7.10;;
10945;SDS011;5525;42.648;23.368;2023-04-24T02:11:43;9.73;;;6.53;;
10945;SDS011;5525;42.648;23.368;2023-04-24T02:14:11;9.50;;;7.30;;
10945;SDS011;5525;42.648;23.368;2023-04-24T02:16:37;8.55;;;7.72;;
10945;SDS011;5525;42.648;23.368;2023-04-24T02:19:04;12.38;;;8.23;;
10945;SDS011;5525;42.648;23.368;2023-04-24T02:21:31;9.00;;;7.93;;
10945;SDS011;5525;42.648;23.368;2023-04-24T02:23:58;10.57;;;8.25;;
10945;SDS011;5525;42.648;23.368;2023-04-24T02:26:25;9.93;;;7.80;;
10945;SDS011;5525;42.648;23.368;2023-04-24T02:28:51;11.40;;;8.18;;
10945;SDS011;5525;42.648;23.368;2023-04-24T02:31:20;13.88;;;8.68;;
10945;SDS011;5525;42.648;23.368;2023-04-24T02:33:46;12.85;;;8.10;;
10945;SDS011;5525;42.648;23.368;2023-04-24T02:36:13;9.40;;;8.20;;
10945;SDS011;5525;42.648;23.368;2023-04-24T02:38:40;9.13;;;7.72;;
10945;SDS011;5525;42.648;23.368;2023-04-24T02:41:06;10.30;;;7.85;;
10945;SDS011;5525;42.648;23.368;2023-04-24T02:43:33;9.35;;;7.65;;
10945;SDS011;5525;42.648;23.368;2023-04-24T02:46:00;10.07;;;6.80;;
10945;SDS011;5525;42.648;23.368;2023-04-24T02:48:28;11.13;;;7.43;;
10945;SDS011;5525;42.648;23.368;2023-04-24T02:50:54;11.20;;;7.72;;
10945;SDS011;5525;42.648;23.368;2023-04-24T02:53:22;8.07;;;7.13;;
10945;SDS011;5525;42.648;23.368;2023-04-24T02:55:49;9.77;;;7.35;;
10945;SDS011;5525;42.648;23.368;2023-04-24T02:58:16;8.57;;;7.68;;
10945;SDS011;5525;42.648;23.368;2023-04-24T03:00:45;15.10;;;7.78;;
10945;SDS011;5525;42.648;23.368;2023-04-24T03:03:11;22.02;;;9.10;;
10945;SDS011;5525;42.648;23.368;2023-04-24T03:05:39;10.13;;;7.45;;
10945;SDS011;5525;42.648;23.368;2023-04-24T03:08:06;9.13;;;7.70;;
10945;SDS011;5525;42.648;23.368;2023-04-24T03:10:33;10.82;;;7.57;;
10945;SDS011;5525;42.648;23.368;2023-04-24T03:13:00;12.80;;;8.32;;
10945;SDS011;5525;42.648;23.368;2023-04-24T03:15:26;14.43;;;9.05;;
10945;SDS011;5525;42.648;23.368;2023-04-24T03:17:53;13.40;;;8.80;;
10945;SDS011;5525;42.648;23.368;2023-04-24T03:20:20;10.73;;;8.88;;
10945;SDS011;5525;42.648;23.368;2023-04-24T03:22:48;9.88;;;8.85;;
10945;SDS011;5525;42.648;23.368;2023-04-24T03:25:15;11.63;;;9.70;;
10945;SDS011;5525;42.648;23.368;2023-04-24T03:27:41;11.57;;;9.13;;
10945;SDS011;5525;42.648;23.368;2023-04-24T03:30:08;10.18;;;9.10;;
10945;SDS011;5525;42.648;23.368;2023-04-24T03:32:35;12.73;;;9.23;;
10945;SDS011;5525;42.648;23.368;2023-04-24T03:35:04;13.63;;;10.63;;
10945;SDS011;5525;42.648;23.368;2023-04-24T03:37:32;15.32;;;9.82;;
10945;SDS011;5525;42.648;23.368;2023-04-24T03:40:00;11.65;;;9.35;;
10945;SDS011;5525;42.648;23.368;2023-04-24T03:42:27;13.63;;;9.30;;
10945;SDS011;5525;42.648;23.368;2023-04-24T03:44:53;16.15;;;9.82;;
10945;SDS011;5525;42.648;23.368;2023-04-24T03:47:20;11.82;;;9.40;;
10945;SDS011;5525;42.648;23.368;2023-04-24T03:49:46;13.50;;;9.55;;
10945;SDS011;5525;42.648;23.368;2023-04-24T03:52:13;15.30;;;9.48;;
10945;SDS011;5525;42.648;23.368;2023-04-24T03:54:40;12.05;;;9.85;;
10945;SDS011;5525;42.648;23.368;2023-04-24T03:57:08;13.65;;;9.60;;
10945;SDS011;5525;42.648;23.368;2023-04-24T03:59:35;13.60;;;10.05;;
10945;SDS011;5525;42.648;23.368;2023-04-24T04:02:01;14.93;;;10.35;;
10945;SDS011;5525;42.648;23.368;2023-04-24T04:04:28;12.80;;;9.98;;
10945;SDS011;5525;42.648;23.368;2023-04-24T04:06:55;15.60;;;10.13;;
10945;SDS011;5525;42.648;23.368;2023-04-24T04:09:21;17.27;;;10.90;;
10945;SDS011;5525;42.648;23.368;2023-04-24T04:11:48;14.65;;;10.95;;
10945;SDS011;5525;42.648;23.368;2023-04-24T04:14:16;19.92;;;14.48;;
10945;SDS011;5525;42.648;23.368;2023-04-24T04:16:42;15.32;;;10.52;;
10945;SDS011;5525;42.648;23.368;2023-04-24T04:19:09;13.27;;;10.95;;
10945;SDS011;5525;42.648;23.368;2023-04-24T04:21:36;19.90;;;11.05;;
10945;SDS011;5525;42.648;23.368;2023-04-24T04:24:02;15.80;;;11.15;;
10945;SDS011;5525;42.648;23.368;2023-04-24T04:26:30;20.98;;;11.48;;
10945;SDS011;5525;42.648;23.368;2023-04-24T04:28:57;20.08;;;10.70;;
10945;SDS011;5525;42.648;23.368;2023-04-24T04:31:27;12.18;;;10.02;;
10945;SDS011;5525;42.648;23.368;2023-04-24T04:33:53;17.23;;;10.40;;
10945;SDS011;5525;42.648;23.368;2023-04-24T04:36:20;14.90;;;9.85;;
10945;SDS011;5525;42.648;23.368;2023-04-24T04:38:46;19.48;;;10.43;;
10945;SDS011;5525;42.648;23.368;2023-04-24T04:41:15;31.92;;;10.90;;
10945;SDS011;5525;42.648;23.368;2023-04-24T04:43:43;20.33;;;11.90;;
10945;SDS011;5525;42.648;23.368;2023-04-24T04:46:11;23.00;;;11.35;;
10945;SDS011;5525;42.648;23.368;2023-04-24T04:48:39;21.77;;;11.15;;
10945;SDS011;5525;42.648;23.368;2023-04-24T04:51:06;28.13;;;11.00;;
10945;SDS011;5525;42.648;23.368;2023-04-24T04:53:32;13.00;;;8.88;;
10945;SDS011;5525;42.648;23.368;2023-04-24T04:56:00;12.02;;;7.85;;
10945;SDS011;5525;42.648;23.368;2023-04-24T04:58:26;14.07;;;9.05;;
10945;SDS011;5525;42.648;23.368;2023-04-24T05:00:53;11.93;;;8.32;;
10945;SDS011;5525;42.648;23.368;2023-04-24T05:03:20;21.25;;;9.60;;
10945;SDS011;5525;42.648;23.368;2023-04-24T05:05:48;15.23;;;9.07;;
10945;SDS011;5525;42.648;23.368;2023-04-24T05:08:14;22.85;;;13.73;;
10945;SDS011;5525;42.648;23.368;2023-04-24T05:10:41;12.55;;;8.70;;
10945;SDS011;5525;42.648;23.368;2023-04-24T05:13:08;20.98;;;9.23;;
10945;SDS011;5525;42.648;23.368;2023-04-24T05:15:35;18.63;;;9.38;;
10945;SDS011;5525;42.648;23.368;2023-04-24T05:18:01;11.85;;;7.97;;
10945;SDS011;5525;42.648;23.368;2023-04-24T05:20:28;15.88;;;7.88;;
10945;SDS011;5525;42.648;23.368;2023-04-24T05:22:56;10.65;;;7.40;;
10945;SDS011;5525;42.648;23.368;2023-04-24T05:25:23;16.83;;;7.95;;
10945;SDS011;5525;42.648;23.368;2023-04-24T05:27:50;13.07;;;7.43;;
10945;SDS011;5525;42.648;23.368;2023-04-24T05:30:18;11.55;;;7.18;;
10945;SDS011;5525;42.648;23.368;2023-04-24T05:32:45;15.27;;;7.30;;
10945;SDS011;5525;42.648;23.368;2023-04-24T05:35:12;8.73;;;6.35;;
10945;SDS011;5525;42.648;23.368;2023-04-24T05:37:38;9.27;;;6.82;;
10945;SDS011;5525;42.648;23.368;2023-04-24T05:40:07;11.75;;;6.47;;
10945;SDS011;5525;42.648;23.368;2023-04-24T05:42:35;7.68;;;5.95;;
10945;SDS011;5525;42.648;23.368;2023-04-24T05:45:02;9.07;;;7.05;;
10945;SDS011;5525;42.648;23.368;2023-04-24T05:47:29;13.38;;;6.95;;
10945;SDS011;5525;42.648;23.368;2023-04-24T05:49:56;11.93;;;6.53;;
10945;SDS011;5525;42.648;23.368;2023-04-24T05:52:23;10.85;;;6.57;;
10945;SDS011;5525;42.648;23.368;2023-04-24T05:54:49;11.13;;;6.30;;
10945;SDS011;5525;42.648;23.368;2023-04-24T05:57:18;7.85;;;6.38;;
10945;SDS011;5525;42.648;23.368;2023-04-24T05:59:45;8.07;;;6.53;;
10945;SDS011;5525;42.648;23.368;2023-04-24T06:02:11;7.75;;;6.32;;
10945;SDS011;5525;42.648;23.368;2023-04-24T06:04:38;9.57;;;5.75;;
10945;SDS011;5525;42.648;23.368;2023-04-24T06:07:05;9.05;;;6.57;;
10945;SDS011;5525;42.648;23.368;2023-04-24T06:09:31;15.07;;;6.90;;
10945;SDS011;5525;42.648;23.368;2023-04-24T06:11:58;9.77;;;6.82;;
10945;SDS011;5525;42.648;23.368;2023-04-24T06:14:26;9.38;;;6.47;;
10945;SDS011;5525;42.648;23.368;2023-04-24T06:16:53;11.02;;;6.95;;
10945;SDS011;5525;42.648;23.368;2023-04-24T06:19:20;9.45;;;6.40;;
10945;SDS011;5525;42.648;23.368;2023-04-24T06:21:46;9.50;;;6.13;;
10945;SDS011;5525;42.648;23.368;2023-04-24T06:24:13;19.00;;;7.22;;
10945;SDS011;5525;42.648;23.368;2023-04-24T06:26:41;9.45;;;6.78;;
10945;SDS011;5525;42.648;23.368;2023-04-24T06:29:08;10.57;;;7.03;;
10945;SDS011;5525;42.648;23.368;2023-04-24T06:31:36;7.40;;;6.15;;
10945;SDS011;5525;42.648;23.368;2023-04-24T06:34:02;12.25;;;7.32;;
10945;SDS011;5525;42.648;23.368;2023-04-24T06:36:29;23.40;;;8.20;;
10945;SDS011;5525;42.648;23.368;2023-04-24T06:38:57;14.65;;;7.78;;
10945;SDS011;5525;42.648;23.368;2023-04-24T06:41:24;11.52;;;8.20;;
10945;SDS011;5525;42.648;23.368;2023-04-24T06:43:50;10.68;;;7.55;;
10945;SDS011;5525;42.648;23.368;2023-04-24T06:46:17;11.02;;;7.55;;
10945;SDS011;5525;42.648;23.368;2023-04-24T06:48:48;9.48;;;7.47;;
10945;SDS011;5525;42.648;23.368;2023-04-24T06:51:15;10.15;;;7.47;;
10945;SDS011;5525;42.648;23.368;2023-04-24T06:53:43;9.85;;;7.35;;
10945;SDS011;5525;42.648;23.368;2023-04-24T06:56:09;11.88;;;7.45;;
10945;SDS011;5525;42.648;23.368;2023-04-24T06:58:36;14.10;;;8.60;;
10945;SDS011;5525;42.648;23.368;2023-04-24T07:01:03;12.65;;;7.85;;
10945;SDS011;5525;42.648;23.368;2023-04-24T07:03:30;9.88;;;7.97;;
10945;SDS011;5525;42.648;23.368;2023-04-24T07:05:58;11.73;;;8.38;;
10945;SDS011;5525;42.648;23.368;2023-04-24T07:08:25;12.60;;;8.00;;
10945;SDS011;5525;42.648;23.368;2023-04-24T07:10:52;10.77;;;8.00;;
10945;SDS011;5525;42.648;23.368;2023-04-24T07:13:18;8.48;;;7.47;;
10945;SDS011;5525;42.648;23.368;2023-04-24T07:15:45;13.50;;;8.18;;
10945;SDS011;5525;42.648;23.368;2023-04-24T07:18:14;10.48;;;7.75;;
10945;SDS011;5525;42.648;23.368;2023-04-24T07:20:40;13.27;;;8.38;;
10945;SDS011;5525;42.648;23.368;2023-04-24T07:23:08;10.60;;;7.78;;
10945;SDS011;5525;42.648;23.368;2023-04-24T07:25:35;11.95;;;7.72;;
10945;SDS011;5525;42.648;23.368;2023-04-24T07:28:02;11.98;;;7.93;;
10945;SDS011;5525;42.648;23.368;2023-04-24T07:30:29;9.40;;;8.20;;
10945;SDS011;5525;42.648;23.368;2023-04-24T07:32:57;10.85;;;7.80;;
10945;SDS011;5525;42.648;23.368;2023-04-24T07:35:24;9.55;;;7.70;;
10945;SDS011;5525;42.648;23.368;2023-04-24T07:37:52;8.52;;;7.60;;
10945;SDS011;5525;42.648;23.368;2023-04-24T07:40:20;9.48;;;7.47;;
10945;SDS011;5525;42.648;23.368;2023-04-24T07:42:48;8.23;;;7.25;;
10945;SDS011;5525;42.648;23.368;2023-04-24T07:45:15;8.95;;;7.43;;
10945;SDS011;5525;42.648;23.368;2023-04-24T07:47:42;9.50;;;7.97;;
10945;SDS011;5525;42.648;23.368;2023-04-24T07:50:10;12.27;;;8.18;;
10945;SDS011;5525;42.648;23.368;2023-04-24T07:52:37;13.05;;;8.25;;
10945;SDS011;5525;42.648;23.368;2023-04-24T07:55:05;8.40;;;7.00;;
10945;SDS011;5525;42.648;23.368;2023-04-24T07:57:33;7.63;;;6.57;;
10945;SDS011;5525;42.648;23.368;2023-04-24T08:00:00;9.00;;;5.60;;
10945;SDS011;5525;42.648;23.368;2023-04-24T08:02:27;6.40;;;5.70;;
10945;SDS011;5525;42.648;23.368;2023-04-24T08:04:54;6.45;;;5.82;;
10945;SDS011;5525;42.648;23.368;2023-04-24T08:07:21;7.22;;;5.38;;
10945;SDS011;5525;42.648;23.368;2023-04-24T08:09:48;6.05;;;5.43;;
10945;SDS011;5525;42.648;23.368;2023-04-24T08:12:15;6.95;;;6.13;;
10945;SDS011;5525;42.648;23.368;2023-04-24T08:14:43;7.32;;;6.40;;
10945;SDS011;5525;42.648;23.368;2023-04-24T08:17:09;15.02;;;7.38;;
10945;SDS011;5525;42.648;23.368;2023-04-24T08:19:36;7.97;;;7.15;;
10945;SDS011;5525;42.648;23.368;2023-04-24T08:22:03;8.48;;;6.60;;
10945;SDS011;5525;42.648;23.368;2023-04-24T08:24:30;8.45;;;7.03;;
10945;SDS011;5525;42.648;23.368;2023-04-24T08:26:56;10.82;;;7.10;;
10945;SDS011;5525;42.648;23.368;2023-04-24T08:29:23;14.18;;;7.18;;
10945;SDS011;5525;42.648;23.368;2023-04-24T08:31:53;12.60;;;6.93;;
10945;SDS011;5525;42.648;23.368;2023-04-24T08:34:20;6.88;;;6.13;;
10945;SDS011;5525;42.648;23.368;2023-04-24T08:36:47;11.73;;;6.40;;
10945;SDS011;5525;42.648;23.368;2023-04-24T08:39:14;7.65;;;6.03;;
10945;SDS011;5525;42.648;23.368;2023-04-24T08:41:41;7.07;;;6.38;;
10945;SDS011;5525;42.648;23.368;2023-04-24T08:44:10;9.07;;;5.85;;
10945;SDS011;5525;42.648;23.368;2023-04-24T08:46:38;8.65;;;6.07;;
10945;SDS011;5525;42.648;23.368;2023-04-24T08:49:08;7.63;;;5.63;;
10945;SDS011;5525;42.648;23.368;2023-04-24T08:51:35;6.32;;;5.72;;
10945;SDS011;5525;42.648;23.368;2023-04-24T08:54:04;8.35;;;5.93;;
10945;SDS011;5525;42.648;23.368;2023-04-24T08:56:32;9.63;;;5.78;;
10945;SDS011;5525;42.648;23.368;2023-04-24T08:59:02;6.95;;;5.38;;
10945;SDS011;5525;42.648;23.368;2023-04-24T09:01:29;5.65;;;5.13;;
10945;SDS011;5525;42.648;23.368;2023-04-24T09:03:59;7.35;;;5.85;;
10945;SDS011;5525;42.648;23.368;2023-04-24T09:06:30;8.88;;;5.10;;
10945;SDS011;5525;42.648;23.368;2023-04-24T09:08:58;6.25;;;5.20;;
10945;SDS011;5525;42.648;23.368;2023-04-24T09:11:29;7.00;;;4.90;;
10945;SDS011;5525;42.648;23.368;2023-04-24T09:13:56;6.35;;;4.72;;
10945;SDS011;5525;42.648;23.368;2023-04-24T09:16:24;7.10;;;4.97;;
10945;SDS011;5525;42.648;23.368;2023-04-24T09:18:52;8.00;;;5.20;;
10945;SDS011;5525;42.648;23.368;2023-04-24T09:21:20;10.93;;;5.90;;
10945;SDS011;5525;42.648;23.368;2023-04-24T09:23:49;7.60;;;5.10;;
10945;SDS011;5525;42.648;23.368;2023-04-24T09:26:24;5.65;;;4.85;;
10945;SDS011;5525;42.648;23.368;2023-04-24T09:28:53;9.23;;;5.20;;
10945;SDS011;5525;42.648;23.368;2023-04-24T09:31:19;8.90;;;4.88;;
10945;SDS011;5525;42.648;23.368;2023-04-24T09:33:53;6.70;;;4.82;;
10945;SDS011;5525;42.648;23.368;2023-04-24T09:36:26;7.47;;;4.70;;
10945;SDS011;5525;42.648;23.368;2023-04-24T09:38:57;5.93;;;5.13;;
10945;SDS011;5525;42.648;23.368;2023-04-24T09:41:24;7.30;;;5.30;;
10945;SDS011;5525;42.648;23.368;2023-04-24T09:43:53;5.65;;;4.93;;
10945;SDS011;5525;42.648;23.368;2023-04-24T09:46:20;5.82;;;5.00;;
10945;SDS011;5525;42.648;23.368;2023-04-24T09:48:47;8.75;;;4.70;;
10945;SDS011;5525;42.648;23.368;2023-04-24T09:51:14;7.50;;;5.45;;
10945;SDS011;5525;42.648;23.368;2023-04-24T09:53:44;6.43;;;4.75;;
10945;SDS011;5525;42.648;23.368;2023-04-24T09:56:14;7.80;;;5.43;;
10945;SDS011;5525;42.648;23.368;2023-04-24T09:58:41;5.32;;;4.53;;
10945;SDS011;5525;42.648;23.368;2023-04-24T10:01:07;7.22;;;4.90;;
10945;SDS011;5525;42.648;23.368;2023-04-24T10:03:34;7.05;;;4.78;;
10945;SDS011;5525;42.648;23.368;2023-04-24T10:06:01;5.80;;;4.57;;
10945;SDS011;5525;42.648;23.368;2023-04-24T10:08:33;9.73;;;5.30;;
10945;SDS011;5525;42.648;23.368;2023-04-24T10:11:03;6.70;;;4.75;;
10945;SDS011;5525;42.648;23.368;2023-04-24T10:13:31;5.70;;;4.70;;
10945;SDS011;5525;42.648;23.368;2023-04-24T10:15:59;5.00;;;4.60;;
10945;SDS011;5525;42.648;23.368;2023-04-24T10:18:27;5.90;;;4.80;;
10945;SDS011;5525;42.648;23.368;2023-04-24T10:20:54;6.40;;;5.20;;
10945;SDS011;5525;42.648;23.368;2023-04-24T10:23:22;4.75;;;4.30;;
10945;SDS011;5525;42.648;23.368;2023-04-24T10:25:51;9.02;;;4.35;;
10945;SDS011;5525;42.648;23.368;2023-04-24T10:28:18;7.65;;;4.47;;
10945;SDS011;5525;42.648;23.368;2023-04-24T10:30:48;5.18;;;4.63;;
10945;SDS011;5525;42.648;23.368;2023-04-24T10:33:16;5.40;;;4.88;;
10945;SDS011;5525;42.648;23.368;2023-04-24T10:35:44;8.80;;;4.85;;
10945;SDS011;5525;42.648;23.368;2023-04-24T10:38:17;5.68;;;4.82;;
10945;SDS011;5525;42.648;23.368;2023-04-24T10:40:49;5.13;;;4.55;;
10945;SDS011;5525;42.648;23.368;2023-04-24T10:43:16;6.05;;;4.80;;
10945;SDS011;5525;42.648;23.368;2023-04-24T10:48:43;5.57;;;4.88;;
10945;SDS011;5525;42.648;23.368;2023-04-24T10:51:11;6.00;;;5.07;;
10945;SDS011;5525;42.648;23.368;2023-04-24T10:53:39;5.53;;;4.75;;
10945;SDS011;5525;42.648;23.368;2023-04-24T10:56:06;4.90;;;4.43;;
10945;SDS011;5525;42.648;23.368;2023-04-24T10:58:38;4.88;;;4.30;;
10945;SDS011;5525;42.648;23.368;2023-04-24T11:01:10;7.35;;;4.15;;
10945;SDS011;5525;42.648;23.368;2023-04-24T11:03:54;5.05;;;4.65;;
10945;SDS011;5525;42.648;23.368;2023-04-24T11:06:28;19.00;;;6.20;;
10945;SDS011;5525;42.648;23.368;2023-04-24T11:08:59;7.90;;;4.43;;
10945;SDS011;5525;42.648;23.368;2023-04-24T11:11:29;12.38;;;4.93;;
10945;SDS011;5525;42.648;23.368;2023-04-24T11:14:06;68.35;;;8.65;;
10945;SDS011;5525;42.648;23.368;2023-04-24T11:16:34;5.78;;;4.55;;
10945;SDS011;5525;42.648;23.368;2023-04-24T11:19:06;4.82;;;4.18;;
10945;SDS011;5525;42.648;23.368;2023-04-24T11:21:41;5.03;;;4.43;;
10945;SDS011;5525;42.648;23.368;2023-04-24T11:24:22;9.10;;;4.95;;
10945;SDS011;5525;42.648;23.368;2023-04-24T11:27:07;4.38;;;3.97;;
10945;SDS011;5525;42.648;23.368;2023-04-24T11:29:43;6.13;;;4.20;;
10945;SDS011;5525;42.648;23.368;2023-04-24T11:32:16;6.00;;;4.55;;
10945;SDS011;5525;42.648;23.368;2023-04-24T11:34:47;5.75;;;3.97;;
10945;SDS011;5525;42.648;23.368;2023-04-24T11:37:14;7.18;;;3.83;;
10945;SDS011;5525;42.648;23.368;2023-04-24T11:39:42;4.32;;;3.85;;
10945;SDS011;5525;42.648;23.368;2023-04-24T11:42:09;5.22;;;3.50;;
10945;SDS011;5525;42.648;23.368;2023-04-24T11:44:36;4.10;;;3.40;;
10945;SDS011;5525;42.648;23.368;2023-04-24T11:47:04;3.28;;;3.08;;
10945;SDS011;5525;42.648;23.368;2023-04-24T11:49:32;4.40;;;4.00;;
10945;SDS011;5525;42.648;23.368;2023-04-24T11:52:00;4.47;;;4.03;;
10945;SDS011;5525;42.648;23.368;2023-04-24T11:54:27;3.97;;;3.67;;
10945;SDS011;5525;42.648;23.368;2023-04-24T11:56:55;5.78;;;4.38;;
10945;SDS011;5525;42.648;23.368;2023-04-24T11:59:22;6.80;;;4.60;;
10945;SDS011;5525;42.648;23.368;2023-04-24T12:01:49;5.03;;;4.20;;
10945;SDS011;5525;42.648;23.368;2023-04-24T12:04:16;4.63;;;3.83;;
10945;SDS011;5525;42.648;23.368;2023-04-24T12:07:01;4.97;;;3.83;;
10945;SDS011;5525;42.648;23.368;2023-04-24T12:09:28;4.55;;;4.13;;
10945;SDS011;5525;42.648;23.368;2023-04-24T12:12:06;4.28;;;3.88;;
10945;SDS011;5525;42.648;23.368;2023-04-24T12:14:33;4.10;;;3.80;;
10945;SDS011;5525;42.648;23.368;2023-04-24T12:17:07;4.03;;;3.58;;
10945;SDS011;5525;42.648;23.368;2023-04-24T12:19:34;7.28;;;4.40;;
10945;SDS011;5525;42.648;23.368;2023-04-24T12:22:03;4.20;;;3.80;;
10945;SDS011;5525;42.648;23.368;2023-04-24T12:24:31;4.60;;;4.20;;
10945;SDS011;5525;42.648;23.368;2023-04-24T12:26:58;4.53;;;3.67;;
10945;SDS011;5525;42.648;23.368;2023-04-24T12:29:26;4.55;;;4.07;;
10945;SDS011;5525;42.648;23.368;2023-04-24T12:31:53;5.82;;;4.32;;
10945;SDS011;5525;42.648;23.368;2023-04-24T12:34:20;4.72;;;3.40;;
10945;SDS011;5525;42.648;23.368;2023-04-24T12:36:49;7.22;;;3.38;;
10945;SDS011;5525;42.648;23.368;2023-04-24T12:39:17;3.90;;;3.47;;
10945;SDS011;5525;42.648;23.368;2023-04-24T12:41:54;4.45;;;3.70;;
10945;SDS011;5525;42.648;23.368;2023-04-24T12:44:28;3.97;;;3.42;;
10945;SDS011;5525;42.648;23.368;2023-04-24T12:46:56;4.20;;;3.80;;
10945;SDS011;5525;42.648;23.368;2023-04-24T12:49:23;4.03;;;3.63;;
10945;SDS011;5525;42.648;23.368;2023-04-24T12:51:50;4.80;;;4.30;;
10945;SDS011;5525;42.648;23.368;2023-04-24T12:54:18;4.30;;;3.90;;
10945;SDS011;5525;42.648;23.368;2023-04-24T12:56:45;3.95;;;3.55;;
10945;SDS011;5525;42.648;23.368;2023-04-24T12:59:11;3.72;;;3.42;;
10945;SDS011;5525;42.648;23.368;2023-04-24T13:01:38;4.70;;;4.30;;
10945;SDS011;5525;42.648;23.368;2023-04-24T13:04:05;6.57;;;3.83;;
10945;SDS011;5525;42.648;23.368;2023-04-24T13:06:32;5.50;;;5.00;;
10945;SDS011;5525;42.648;23.368;2023-04-24T13:08:59;6.15;;;4.38;;
10945;SDS011;5525;42.648;23.368;2023-04-24T13:11:27;5.35;;;4.82;;
10945;SDS011;5525;42.648;23.368;2023-04-24T13:13:54;6.45;;;4.68;;
10945;SDS011;5525;42.648;23.368;2023-04-24T13:16:20;4.93;;;4.35;;
10945;SDS011;5525;42.648;23.368;2023-04-24T13:18:48;9.45;;;4.85;;
10945;SDS011;5525;42.648;23.368;2023-04-24T13:21:15;5.25;;;4.60;;
10945;SDS011;5525;42.648;23.368;2023-04-24T13:23:42;7.25;;;6.50;;
10945;SDS011;5525;42.648;23.368;2023-04-24T13:26:08;8.15;;;5.95;;
10945;SDS011;5525;42.648;23.368;2023-04-24T13:28:37;5.20;;;4.70;;
10945;SDS011;5525;42.648;23.368;2023-04-24T13:31:03;5.65;;;4.70;;
10945;SDS011;5525;42.648;23.368;2023-04-24T13:33:31;4.85;;;4.43;;
10945;SDS011;5525;42.648;23.368;2023-04-24T13:35:58;4.90;;;4.40;;
10945;SDS011;5525;42.648;23.368;2023-04-24T13:38:25;4.88;;;4.47;;
10945;SDS011;5525;42.648;23.368;2023-04-24T13:40:51;6.45;;;4.75;;
10945;SDS011;5525;42.648;23.368;2023-04-24T13:43:18;4.93;;;4.40;;
10945;SDS011;5525;42.648;23.368;2023-04-24T13:45:46;5.32;;;4.82;;
10945;SDS011;5525;42.648;23.368;2023-04-24T13:48:13;5.18;;;4.68;;
10945;SDS011;5525;42.648;23.368;2023-04-24T13:50:41;6.05;;;4.57;;
10945;SDS011;5525;42.648;23.368;2023-04-24T13:53:08;4.97;;;4.43;;
10945;SDS011;5525;42.648;23.368;2023-04-24T13:55:34;5.05;;;4.22;;
10945;SDS011;5525;42.648;23.368;2023-04-24T13:58:02;4.55;;;4.10;;
10945;SDS011;5525;42.648;23.368;2023-04-24T14:00:29;5.07;;;4.57;;
10945;SDS011;5525;42.648;23.368;2023-04-24T14:02:57;5.72;;;4.43;;
10945;SDS011;5525;42.648;23.368;2023-04-24T14:05:24;5.10;;;4.60;;
10945;SDS011;5525;42.648;23.368;2023-04-24T14:07:51;5.13;;;4.57;;
10945;SDS011;5525;42.648;23.368;2023-04-24T14:10:17;4.97;;;4.45;;
10945;SDS011;5525;42.648;23.368;2023-04-24T14:12:47;5.10;;;4.63;;
10945;SDS011;5525;42.648;23.368;2023-04-24T14:15:14;5.63;;;4.68;;
10945;SDS011;5525;42.648;23.368;2023-04-24T14:17:42;4.85;;;4.40;;
10945;SDS011;5525;42.648;23.368;2023-04-24T14:20:10;8.10;;;5.20;;
10945;SDS011;5525;42.648;23.368;2023-04-24T14:22:38;5.68;;;4.90;;
10945;SDS011;5525;42.648;23.368;2023-04-24T14:25:05;5.15;;;4.65;;
10945;SDS011;5525;42.648;23.368;2023-04-24T14:27:33;3.63;;;3.28;;
10945;SDS011;5525;42.648;23.368;2023-04-24T14:30:01;8.45;;;3.40;;
10945;SDS011;5525;42.648;23.368;2023-04-24T14:32:28;5.00;;;3.40;;
10945;SDS011;5525;42.648;23.368;2023-04-24T14:34:54;4.20;;;3.90;;
10945;SDS011;5525;42.648;23.368;2023-04-24T14:37:22;4.10;;;3.78;;
10945;SDS011;5525;42.648;23.368;2023-04-24T14:39:49;4.00;;;3.70;;
10945;SDS011;5525;42.648;23.368;2023-04-24T14:42:16;3.92;;;3.63;;
10945;SDS011;5525;42.648;23.368;2023-04-24T14:44:43;4.75;;;4.20;;
10945;SDS011;5525;42.648;23.368;2023-04-24T14:47:10;6.25;;;4.28;;
10945;SDS011;5525;42.648;23.368;2023-04-24T14:49:36;6.68;;;3.65;;